sensor_id;sensor_type;location;lat;lon;timestamp;P1;durP1;ratioP1;P2;durP2;ratioP2
75400;SDS011;63974;47.538;18.972;2023-08-12T00:01:31;4.67;;;2.07;;
75400;SDS011;63974;47.538;18.972;2023-08-12T00:04:34;3.20;;;1.83;;
75400;SDS011;63974;47.538;18.972;2023-08-12T00:07:36;3.40;;;1.73;;
75400;SDS011;63974;47.538;18.972;2023-08-12T00:10:39;3.33;;;1.90;;
75400;SDS011;63974;47.538;18.972;2023-08-12T00:13:42;2.90;;;1.90;;
75400;SDS011;63974;47.538;18.972;2023-08-12T00:16:45;4.17;;;2.20;;
75400;SDS011;63974;47.538;18.972;2023-08-12T00:19:48;2.80;;;1.85;;
75400;SDS011;63974;47.538;18.972;2023-08-12T00:22:50;2.35;;;1.90;;
75400;SDS011;63974;47.538;18.972;2023-08-12T00:25:57;3.10;;;2.20;;
75400;SDS011;63974;47.538;18.972;2023-08-12T00:29:00;4.70;;;2.17;;
75400;SDS011;63974;47.538;18.972;2023-08-12T00:32:03;2.60;;;2.20;;
75400;SDS011;63974;47.538;18.972;2023-08-12T00:35:06;4.25;;;2.35;;
75400;SDS011;63974;47.538;18.972;2023-08-12T00:38:09;4.43;;;2.03;;
75400;SDS011;63974;47.538;18.972;2023-08-12T00:41:12;2.92;;;2.08;;
75400;SDS011;63974;47.538;18.972;2023-08-12T00:44:15;2.80;;;2.20;;
75400;SDS011;63974;47.538;18.972;2023-08-12T00:47:18;2.93;;;2.20;;
75400;SDS011;63974;47.538;18.972;2023-08-12T00:50:21;2.42;;;1.90;;
75400;SDS011;63974;47.538;18.972;2023-08-12T00:53:24;3.42;;;2.60;;
75400;SDS011;63974;47.538;18.972;2023-08-12T00:56:26;4.28;;;2.47;;
75400;SDS011;63974;47.538;18.972;2023-08-12T00:59:34;2.20;;;2.00;;
75400;SDS011;63974;47.538;18.972;2023-08-12T01:02:38;3.20;;;2.13;;
75400;SDS011;63974;47.538;18.972;2023-08-12T01:05:41;3.05;;;1.98;;
75400;SDS011;63974;47.538;18.972;2023-08-12T01:08:44;2.95;;;2.20;;
75400;SDS011;63974;47.538;18.972;2023-08-12T01:11:55;3.10;;;1.80;;
75400;SDS011;63974;47.538;18.972;2023-08-12T01:15:09;2.95;;;2.40;;
75400;SDS011;63974;47.538;18.972;2023-08-12T01:18:18;3.13;;;1.97;;
75400;SDS011;63974;47.538;18.972;2023-08-12T01:21:21;3.42;;;2.47;;
75400;SDS011;63974;47.538;18.972;2023-08-12T01:24:27;3.22;;;2.08;;
75400;SDS011;63974;47.538;18.972;2023-08-12T01:27:38;2.95;;;2.08;;
75400;SDS011;63974;47.538;18.972;2023-08-12T01:30:46;3.33;;;2.03;;
75400;SDS011;63974;47.538;18.972;2023-08-12T01:34:04;2.97;;;2.10;;
75400;SDS011;63974;47.538;18.972;2023-08-12T01:37:34;4.45;;;2.53;;
75400;SDS011;63974;47.538;18.972;2023-08-12T01:40:40;3.10;;;2.50;;
75400;SDS011;63974;47.538;18.972;2023-08-12T01:43:45;2.75;;;2.17;;
75400;SDS011;63974;47.538;18.972;2023-08-12T01:46:48;3.05;;;2.42;;
75400;SDS011;63974;47.538;18.972;2023-08-12T01:49:53;2.93;;;2.00;;
75400;SDS011;63974;47.538;18.972;2023-08-12T01:52:56;2.90;;;2.17;;
75400;SDS011;63974;47.538;18.972;2023-08-12T01:55:59;5.85;;;1.98;;
75400;SDS011;63974;47.538;18.972;2023-08-12T01:59:01;3.63;;;2.30;;
75400;SDS011;63974;47.538;18.972;2023-08-12T02:02:04;2.30;;;2.10;;
75400;SDS011;63974;47.538;18.972;2023-08-12T02:05:07;2.43;;;2.07;;
75400;SDS011;63974;47.538;18.972;2023-08-12T02:08:10;2.85;;;2.30;;
75400;SDS011;63974;47.538;18.972;2023-08-12T02:11:13;3.92;;;2.20;;
75400;SDS011;63974;47.538;18.972;2023-08-12T02:14:16;2.38;;;1.95;;
75400;SDS011;63974;47.538;18.972;2023-08-12T02:17:19;3.38;;;1.90;;
75400;SDS011;63974;47.538;18.972;2023-08-12T02:20:22;3.80;;;2.00;;
75400;SDS011;63974;47.538;18.972;2023-08-12T02:23:24;3.10;;;2.05;;
75400;SDS011;63974;47.538;18.972;2023-08-12T02:26:27;3.50;;;2.20;;
75400;SDS011;63974;47.538;18.972;2023-08-12T02:29:30;2.70;;;2.20;;
75400;SDS011;63974;47.538;18.972;2023-08-12T02:32:33;4.28;;;2.50;;
75400;SDS011;63974;47.538;18.972;2023-08-12T02:35:35;3.23;;;2.30;;
75400;SDS011;63974;47.538;18.972;2023-08-12T02:38:38;4.75;;;2.30;;
75400;SDS011;63974;47.538;18.972;2023-08-12T02:41:41;3.17;;;2.30;;
75400;SDS011;63974;47.538;18.972;2023-08-12T02:44:44;5.30;;;2.55;;
75400;SDS011;63974;47.538;18.972;2023-08-12T02:47:47;3.15;;;2.20;;
75400;SDS011;63974;47.538;18.972;2023-08-12T02:50:49;2.87;;;2.20;;
75400;SDS011;63974;47.538;18.972;2023-08-12T02:53:52;3.33;;;2.70;;
75400;SDS011;63974;47.538;18.972;2023-08-12T02:56:55;4.72;;;1.85;;
75400;SDS011;63974;47.538;18.972;2023-08-12T02:59:58;4.00;;;2.15;;
75400;SDS011;63974;47.538;18.972;2023-08-12T03:03:01;6.15;;;2.25;;
75400;SDS011;63974;47.538;18.972;2023-08-12T03:06:05;5.37;;;2.60;;
75400;SDS011;63974;47.538;18.972;2023-08-12T03:09:07;4.53;;;2.30;;
75400;SDS011;63974;47.538;18.972;2023-08-12T03:12:10;5.43;;;2.35;;
75400;SDS011;63974;47.538;18.972;2023-08-12T03:15:13;3.42;;;2.30;;
75400;SDS011;63974;47.538;18.972;2023-08-12T03:18:16;3.92;;;2.58;;
75400;SDS011;63974;47.538;18.972;2023-08-12T03:21:19;4.90;;;2.47;;
75400;SDS011;63974;47.538;18.972;2023-08-12T03:24:23;5.03;;;2.50;;
75400;SDS011;63974;47.538;18.972;2023-08-12T03:27:26;2.88;;;2.33;;
75400;SDS011;63974;47.538;18.972;2023-08-12T03:30:29;3.97;;;2.70;;
75400;SDS011;63974;47.538;18.972;2023-08-12T03:33:33;3.88;;;2.70;;
75400;SDS011;63974;47.538;18.972;2023-08-12T03:36:37;5.93;;;2.80;;
75400;SDS011;63974;47.538;18.972;2023-08-12T03:39:40;4.95;;;2.60;;
75400;SDS011;63974;47.538;18.972;2023-08-12T03:42:43;3.60;;;2.47;;
75400;SDS011;63974;47.538;18.972;2023-08-12T03:45:46;3.92;;;2.55;;
75400;SDS011;63974;47.538;18.972;2023-08-12T03:48:52;4.18;;;2.50;;
75400;SDS011;63974;47.538;18.972;2023-08-12T03:51:55;6.33;;;2.87;;
75400;SDS011;63974;47.538;18.972;2023-08-12T03:55:00;9.85;;;3.15;;
75400;SDS011;63974;47.538;18.972;2023-08-12T03:58:03;3.78;;;2.92;;
75400;SDS011;63974;47.538;18.972;2023-08-12T04:01:07;4.65;;;2.58;;
75400;SDS011;63974;47.538;18.972;2023-08-12T04:04:10;5.13;;;2.65;;
75400;SDS011;63974;47.538;18.972;2023-08-12T04:07:15;3.70;;;3.00;;
75400;SDS011;63974;47.538;18.972;2023-08-12T04:10:18;3.08;;;2.70;;
75400;SDS011;63974;47.538;18.972;2023-08-12T04:13:21;4.63;;;2.92;;
75400;SDS011;63974;47.538;18.972;2023-08-12T04:16:24;4.43;;;3.03;;
75400;SDS011;63974;47.538;18.972;2023-08-12T04:19:26;5.65;;;2.40;;
75400;SDS011;63974;47.538;18.972;2023-08-12T04:22:30;3.43;;;2.80;;
75400;SDS011;63974;47.538;18.972;2023-08-12T04:25:33;4.90;;;3.22;;
75400;SDS011;63974;47.538;18.972;2023-08-12T04:28:35;5.60;;;3.00;;
75400;SDS011;63974;47.538;18.972;2023-08-12T04:31:40;3.35;;;2.92;;
75400;SDS011;63974;47.538;18.972;2023-08-12T04:34:44;3.25;;;2.95;;
75400;SDS011;63974;47.538;18.972;2023-08-12T04:37:49;4.83;;;3.20;;
75400;SDS011;63974;47.538;18.972;2023-08-12T04:40:53;5.60;;;3.40;;
75400;SDS011;63974;47.538;18.972;2023-08-12T04:43:57;4.57;;;3.55;;
75400;SDS011;63974;47.538;18.972;2023-08-12T04:47:03;4.57;;;3.28;;
75400;SDS011;63974;47.538;18.972;2023-08-12T04:50:08;21.73;;;5.15;;
75400;SDS011;63974;47.538;18.972;2023-08-12T04:53:11;3.77;;;2.63;;
75400;SDS011;63974;47.538;18.972;2023-08-12T04:56:15;10.27;;;4.30;;
75400;SDS011;63974;47.538;18.972;2023-08-12T04:59:17;3.20;;;2.75;;
75400;SDS011;63974;47.538;18.972;2023-08-12T05:02:21;5.93;;;3.30;;
75400;SDS011;63974;47.538;18.972;2023-08-12T05:05:25;5.80;;;3.38;;
75400;SDS011;63974;47.538;18.972;2023-08-12T05:08:29;3.53;;;3.20;;
75400;SDS011;63974;47.538;18.972;2023-08-12T05:11:32;4.47;;;3.42;;
75400;SDS011;63974;47.538;18.972;2023-08-12T05:14:34;4.10;;;3.17;;
75400;SDS011;63974;47.538;18.972;2023-08-12T05:17:37;4.32;;;2.88;;
75400;SDS011;63974;47.538;18.972;2023-08-12T05:20:41;6.38;;;3.47;;
75400;SDS011;63974;47.538;18.972;2023-08-12T05:23:48;4.27;;;3.70;;
75400;SDS011;63974;47.538;18.972;2023-08-12T05:26:51;5.18;;;2.92;;
75400;SDS011;63974;47.538;18.972;2023-08-12T05:29:53;6.45;;;3.05;;
75400;SDS011;63974;47.538;18.972;2023-08-12T05:32:56;6.10;;;3.22;;
75400;SDS011;63974;47.538;18.972;2023-08-12T05:35:59;5.50;;;3.60;;
75400;SDS011;63974;47.538;18.972;2023-08-12T05:39:02;5.37;;;3.40;;
75400;SDS011;63974;47.538;18.972;2023-08-12T05:42:05;10.52;;;3.83;;
75400;SDS011;63974;47.538;18.972;2023-08-12T05:45:08;4.70;;;4.20;;
75400;SDS011;63974;47.538;18.972;2023-08-12T05:48:12;5.18;;;4.05;;
75400;SDS011;63974;47.538;18.972;2023-08-12T05:51:15;6.07;;;4.15;;
75400;SDS011;63974;47.538;18.972;2023-08-12T05:54:18;7.47;;;3.77;;
75400;SDS011;63974;47.538;18.972;2023-08-12T05:57:21;9.07;;;3.95;;
75400;SDS011;63974;47.538;18.972;2023-08-12T06:00:23;4.82;;;4.32;;
75400;SDS011;63974;47.538;18.972;2023-08-12T06:03:26;7.70;;;4.10;;
75400;SDS011;63974;47.538;18.972;2023-08-12T06:06:29;5.22;;;3.95;;
75400;SDS011;63974;47.538;18.972;2023-08-12T06:09:32;4.67;;;3.77;;
75400;SDS011;63974;47.538;18.972;2023-08-12T06:12:35;4.70;;;3.35;;
75400;SDS011;63974;47.538;18.972;2023-08-12T06:15:37;4.13;;;3.50;;
75400;SDS011;63974;47.538;18.972;2023-08-12T06:18:40;4.38;;;3.60;;
75400;SDS011;63974;47.538;18.972;2023-08-12T06:21:43;5.57;;;3.50;;
75400;SDS011;63974;47.538;18.972;2023-08-12T06:24:46;3.13;;;2.83;;
75400;SDS011;63974;47.538;18.972;2023-08-12T06:27:49;6.10;;;3.13;;
75400;SDS011;63974;47.538;18.972;2023-08-12T06:30:52;5.53;;;3.28;;
75400;SDS011;63974;47.538;18.972;2023-08-12T06:33:55;3.47;;;3.17;;
75400;SDS011;63974;47.538;18.972;2023-08-12T06:36:58;3.60;;;3.30;;
75400;SDS011;63974;47.538;18.972;2023-08-12T06:40:00;3.37;;;2.77;;
75400;SDS011;63974;47.538;18.972;2023-08-12T06:43:03;2.83;;;2.50;;
75400;SDS011;63974;47.538;18.972;2023-08-12T06:46:06;3.45;;;2.72;;
75400;SDS011;63974;47.538;18.972;2023-08-12T06:49:09;3.92;;;2.70;;
75400;SDS011;63974;47.538;18.972;2023-08-12T06:52:11;3.67;;;2.55;;
75400;SDS011;63974;47.538;18.972;2023-08-12T06:55:15;3.27;;;2.93;;
75400;SDS011;63974;47.538;18.972;2023-08-12T06:58:18;6.35;;;2.85;;
75400;SDS011;63974;47.538;18.972;2023-08-12T07:01:21;3.47;;;2.53;;
75400;SDS011;63974;47.538;18.972;2023-08-12T07:04:23;4.47;;;2.47;;
75400;SDS011;63974;47.538;18.972;2023-08-12T07:07:26;3.47;;;2.67;;
75400;SDS011;63974;47.538;18.972;2023-08-12T07:10:29;3.10;;;2.80;;
75400;SDS011;63974;47.538;18.972;2023-08-12T07:13:32;4.63;;;2.50;;
75400;SDS011;63974;47.538;18.972;2023-08-12T07:16:35;2.88;;;2.53;;
75400;SDS011;63974;47.538;18.972;2023-08-12T07:19:38;2.40;;;2.25;;
75400;SDS011;63974;47.538;18.972;2023-08-12T07:22:41;2.90;;;2.30;;
75400;SDS011;63974;47.538;18.972;2023-08-12T07:25:45;3.27;;;2.67;;
75400;SDS011;63974;47.538;18.972;2023-08-12T07:28:49;3.20;;;2.90;;
75400;SDS011;63974;47.538;18.972;2023-08-12T07:31:52;2.55;;;2.35;;
75400;SDS011;63974;47.538;18.972;2023-08-12T07:34:55;2.92;;;2.22;;
75400;SDS011;63974;47.538;18.972;2023-08-12T07:37:58;2.95;;;2.47;;
75400;SDS011;63974;47.538;18.972;2023-08-12T07:41:01;2.80;;;2.60;;
75400;SDS011;63974;47.538;18.972;2023-08-12T07:44:04;5.35;;;2.42;;
75400;SDS011;63974;47.538;18.972;2023-08-12T07:47:07;3.33;;;2.42;;
75400;SDS011;63974;47.538;18.972;2023-08-12T07:50:10;3.10;;;2.55;;
75400;SDS011;63974;47.538;18.972;2023-08-12T07:53:13;3.20;;;2.92;;
75400;SDS011;63974;47.538;18.972;2023-08-12T07:56:15;4.07;;;2.60;;
75400;SDS011;63974;47.538;18.972;2023-08-12T07:59:19;3.17;;;2.53;;
75400;SDS011;63974;47.538;18.972;2023-08-12T08:02:22;3.28;;;2.55;;
75400;SDS011;63974;47.538;18.972;2023-08-12T08:05:25;3.75;;;2.72;;
75400;SDS011;63974;47.538;18.972;2023-08-12T08:08:28;2.67;;;2.47;;
75400;SDS011;63974;47.538;18.972;2023-08-12T08:11:31;2.80;;;2.43;;
75400;SDS011;63974;47.538;18.972;2023-08-12T08:14:34;2.05;;;1.85;;
75400;SDS011;63974;47.538;18.972;2023-08-12T08:17:37;2.60;;;2.40;;
75400;SDS011;63974;47.538;18.972;2023-08-12T08:20:43;3.08;;;2.40;;
75400;SDS011;63974;47.538;18.972;2023-08-12T08:23:47;3.22;;;2.40;;
75400;SDS011;63974;47.538;18.972;2023-08-12T08:26:50;3.33;;;2.40;;
75400;SDS011;63974;47.538;18.972;2023-08-12T08:29:53;6.53;;;2.80;;
75400;SDS011;63974;47.538;18.972;2023-08-12T08:32:55;2.55;;;2.10;;
75400;SDS011;63974;47.538;18.972;2023-08-12T08:35:58;3.63;;;2.80;;
75400;SDS011;63974;47.538;18.972;2023-08-12T08:39:01;2.70;;;2.50;;
75400;SDS011;63974;47.538;18.972;2023-08-12T08:42:05;2.40;;;2.20;;
75400;SDS011;63974;47.538;18.972;2023-08-12T08:45:11;4.13;;;2.05;;
75400;SDS011;63974;47.538;18.972;2023-08-12T08:48:15;2.83;;;2.50;;
75400;SDS011;63974;47.538;18.972;2023-08-12T08:51:18;2.50;;;1.90;;
75400;SDS011;63974;47.538;18.972;2023-08-12T08:54:22;2.67;;;2.25;;
75400;SDS011;63974;47.538;18.972;2023-08-12T08:57:25;2.40;;;1.97;;
75400;SDS011;63974;47.538;18.972;2023-08-12T09:00:47;2.95;;;2.00;;
75400;SDS011;63974;47.538;18.972;2023-08-12T09:03:53;2.63;;;2.30;;
75400;SDS011;63974;47.538;18.972;2023-08-12T09:06:56;3.50;;;2.40;;
75400;SDS011;63974;47.538;18.972;2023-08-12T09:10:01;2.92;;;2.33;;
75400;SDS011;63974;47.538;18.972;2023-08-12T09:13:06;2.30;;;2.03;;
75400;SDS011;63974;47.538;18.972;2023-08-12T09:16:11;2.38;;;2.10;;
75400;SDS011;63974;47.538;18.972;2023-08-12T09:19:14;2.28;;;2.08;;
75400;SDS011;63974;47.538;18.972;2023-08-12T09:22:17;2.78;;;2.45;;
75400;SDS011;63974;47.538;18.972;2023-08-12T09:25:20;2.38;;;2.15;;
75400;SDS011;63974;47.538;18.972;2023-08-12T09:28:24;3.47;;;1.90;;
75400;SDS011;63974;47.538;18.972;2023-08-12T09:31:28;2.35;;;2.15;;
75400;SDS011;63974;47.538;18.972;2023-08-12T09:34:32;2.08;;;1.98;;
75400;SDS011;63974;47.538;18.972;2023-08-12T09:37:35;2.72;;;2.22;;
75400;SDS011;63974;47.538;18.972;2023-08-12T09:40:37;2.38;;;2.08;;
75400;SDS011;63974;47.538;18.972;2023-08-12T09:43:44;3.73;;;1.87;;
75400;SDS011;63974;47.538;18.972;2023-08-12T09:46:48;2.95;;;1.67;;
75400;SDS011;63974;47.538;18.972;2023-08-12T09:49:50;2.72;;;2.03;;
75400;SDS011;63974;47.538;18.972;2023-08-12T09:52:53;2.28;;;2.08;;
75400;SDS011;63974;47.538;18.972;2023-08-12T09:55:58;2.83;;;2.20;;
75400;SDS011;63974;47.538;18.972;2023-08-12T09:59:08;2.57;;;2.20;;
75400;SDS011;63974;47.538;18.972;2023-08-12T10:02:12;3.17;;;2.10;;
75400;SDS011;63974;47.538;18.972;2023-08-12T10:05:22;3.53;;;2.13;;
75400;SDS011;63974;47.538;18.972;2023-08-12T10:08:28;2.38;;;2.17;;
75400;SDS011;63974;47.538;18.972;2023-08-12T10:11:31;2.40;;;2.17;;
75400;SDS011;63974;47.538;18.972;2023-08-12T10:14:34;2.50;;;2.20;;
75400;SDS011;63974;47.538;18.972;2023-08-12T10:17:38;1.98;;;1.50;;
75400;SDS011;63974;47.538;18.972;2023-08-12T10:20:45;2.97;;;2.75;;
75400;SDS011;63974;47.538;18.972;2023-08-12T10:23:50;2.42;;;2.20;;
75400;SDS011;63974;47.538;18.972;2023-08-12T10:26:53;2.53;;;2.17;;
75400;SDS011;63974;47.538;18.972;2023-08-12T10:29:56;2.37;;;2.17;;
75400;SDS011;63974;47.538;18.972;2023-08-12T10:33:02;3.72;;;2.38;;
75400;SDS011;63974;47.538;18.972;2023-08-12T10:36:06;2.58;;;2.35;;
75400;SDS011;63974;47.538;18.972;2023-08-12T10:39:09;2.65;;;2.40;;
75400;SDS011;63974;47.538;18.972;2023-08-12T10:42:12;2.50;;;2.30;;
75400;SDS011;63974;47.538;18.972;2023-08-12T10:45:16;2.10;;;2.00;;
75400;SDS011;63974;47.538;18.972;2023-08-12T10:48:21;2.58;;;2.00;;
75400;SDS011;63974;47.538;18.972;2023-08-12T10:51:43;3.00;;;2.67;;
75400;SDS011;63974;47.538;18.972;2023-08-12T10:54:47;2.97;;;2.30;;
75400;SDS011;63974;47.538;18.972;2023-08-12T10:57:51;5.80;;;2.33;;
75400;SDS011;63974;47.538;18.972;2023-08-12T11:00:58;2.33;;;2.13;;
75400;SDS011;63974;47.538;18.972;2023-08-12T11:04:01;3.00;;;2.20;;
75400;SDS011;63974;47.538;18.972;2023-08-12T11:07:20;2.50;;;2.22;;
75400;SDS011;63974;47.538;18.972;2023-08-12T11:10:25;2.38;;;2.17;;
75400;SDS011;63974;47.538;18.972;2023-08-12T11:13:29;2.85;;;2.58;;
75400;SDS011;63974;47.538;18.972;2023-08-12T11:16:35;2.30;;;2.10;;
75400;SDS011;63974;47.538;18.972;2023-08-12T11:19:42;3.40;;;2.20;;
75400;SDS011;63974;47.538;18.972;2023-08-12T11:22:45;2.50;;;2.30;;
75400;SDS011;63974;47.538;18.972;2023-08-12T11:25:48;2.70;;;2.50;;
75400;SDS011;63974;47.538;18.972;2023-08-12T11:28:53;2.72;;;2.50;;
75400;SDS011;63974;47.538;18.972;2023-08-12T11:31:55;3.20;;;2.13;;
75400;SDS011;63974;47.538;18.972;2023-08-12T11:34:58;2.58;;;2.38;;
75400;SDS011;63974;47.538;18.972;2023-08-12T11:38:02;2.75;;;2.55;;
75400;SDS011;63974;47.538;18.972;2023-08-12T11:41:04;3.20;;;2.35;;
75400;SDS011;63974;47.538;18.972;2023-08-12T11:44:11;2.38;;;2.17;;
75400;SDS011;63974;47.538;18.972;2023-08-12T11:47:17;2.67;;;2.47;;
75400;SDS011;63974;47.538;18.972;2023-08-12T11:50:24;2.38;;;2.08;;
75400;SDS011;63974;47.538;18.972;2023-08-12T11:53:29;2.65;;;2.45;;
75400;SDS011;63974;47.538;18.972;2023-08-12T11:56:32;2.88;;;2.58;;
75400;SDS011;63974;47.538;18.972;2023-08-12T11:59:35;3.08;;;2.53;;
75400;SDS011;63974;47.538;18.972;2023-08-12T12:02:46;2.57;;;2.37;;
75400;SDS011;63974;47.538;18.972;2023-08-12T12:05:55;2.83;;;2.53;;
75400;SDS011;63974;47.538;18.972;2023-08-12T12:09:04;3.30;;;2.72;;
75400;SDS011;63974;47.538;18.972;2023-08-12T12:12:09;2.55;;;2.33;;
75400;SDS011;63974;47.538;18.972;2023-08-12T12:15:13;3.20;;;2.72;;
75400;SDS011;63974;47.538;18.972;2023-08-12T12:18:19;3.03;;;2.83;;
75400;SDS011;63974;47.538;18.972;2023-08-12T12:21:22;2.33;;;2.13;;
75400;SDS011;63974;47.538;18.972;2023-08-12T12:24:28;3.30;;;2.65;;
75400;SDS011;63974;47.538;18.972;2023-08-12T12:27:31;2.83;;;2.45;;
75400;SDS011;63974;47.538;18.972;2023-08-12T12:30:35;2.42;;;2.30;;
75400;SDS011;63974;47.538;18.972;2023-08-12T12:33:39;2.50;;;2.20;;
75400;SDS011;63974;47.538;18.972;2023-08-12T12:36:42;2.67;;;2.40;;
75400;SDS011;63974;47.538;18.972;2023-08-12T12:39:45;2.78;;;2.58;;
75400;SDS011;63974;47.538;18.972;2023-08-12T12:42:48;3.42;;;2.63;;
75400;SDS011;63974;47.538;18.972;2023-08-12T12:45:51;2.60;;;2.40;;
75400;SDS011;63974;47.538;18.972;2023-08-12T12:48:54;4.00;;;2.27;;
75400;SDS011;63974;47.538;18.972;2023-08-12T12:51:57;3.50;;;3.20;;
75400;SDS011;63974;47.538;18.972;2023-08-12T12:54:59;2.75;;;2.55;;
75400;SDS011;63974;47.538;18.972;2023-08-12T12:58:03;3.80;;;2.70;;
75400;SDS011;63974;47.538;18.972;2023-08-12T13:01:06;3.38;;;2.70;;
75400;SDS011;63974;47.538;18.972;2023-08-12T13:04:09;3.80;;;2.77;;
75400;SDS011;63974;47.538;18.972;2023-08-12T13:07:11;2.92;;;2.72;;
75400;SDS011;63974;47.538;18.972;2023-08-12T13:10:14;3.00;;;2.70;;
75400;SDS011;63974;47.538;18.972;2023-08-12T13:13:17;3.50;;;2.95;;
75400;SDS011;63974;47.538;18.972;2023-08-12T13:16:20;2.50;;;2.30;;
75400;SDS011;63974;47.538;18.972;2023-08-12T13:19:23;2.60;;;2.40;;
75400;SDS011;63974;47.538;18.972;2023-08-12T13:22:26;2.60;;;2.40;;
75400;SDS011;63974;47.538;18.972;2023-08-12T13:25:29;3.63;;;2.70;;
75400;SDS011;63974;47.538;18.972;2023-08-12T13:28:33;2.55;;;2.40;;
75400;SDS011;63974;47.538;18.972;2023-08-12T13:31:36;2.78;;;2.58;;
75400;SDS011;63974;47.538;18.972;2023-08-12T13:34:39;3.13;;;2.83;;
75400;SDS011;63974;47.538;18.972;2023-08-12T13:37:42;2.85;;;2.65;;
75400;SDS011;63974;47.538;18.972;2023-08-12T13:40:45;2.25;;;2.03;;
75400;SDS011;63974;47.538;18.972;2023-08-12T13:43:47;2.80;;;2.60;;
75400;SDS011;63974;47.538;18.972;2023-08-12T13:46:50;3.25;;;3.05;;
75400;SDS011;63974;47.538;18.972;2023-08-12T13:49:53;2.73;;;2.53;;
75400;SDS011;63974;47.538;18.972;2023-08-12T13:52:55;2.72;;;2.50;;
75400;SDS011;63974;47.538;18.972;2023-08-12T13:55:59;3.30;;;3.10;;
75400;SDS011;63974;47.538;18.972;2023-08-12T13:59:02;3.15;;;2.60;;
75400;SDS011;63974;47.538;18.972;2023-08-12T14:02:04;2.60;;;2.40;;
75400;SDS011;63974;47.538;18.972;2023-08-12T14:05:08;3.30;;;2.87;;
75400;SDS011;63974;47.538;18.972;2023-08-12T14:08:12;3.03;;;2.72;;
75400;SDS011;63974;47.538;18.972;2023-08-12T14:11:15;4.03;;;3.72;;
75400;SDS011;63974;47.538;18.972;2023-08-12T14:14:19;6.03;;;3.45;;
75400;SDS011;63974;47.538;18.972;2023-08-12T14:17:22;3.63;;;3.38;;
75400;SDS011;63974;47.538;18.972;2023-08-12T14:20:25;3.43;;;3.17;;
75400;SDS011;63974;47.538;18.972;2023-08-12T14:23:28;5.22;;;3.10;;
75400;SDS011;63974;47.538;18.972;2023-08-12T14:26:31;3.88;;;3.58;;
75400;SDS011;63974;47.538;18.972;2023-08-12T14:29:34;3.33;;;3.03;;
75400;SDS011;63974;47.538;18.972;2023-08-12T14:32:36;3.47;;;3.17;;
75400;SDS011;63974;47.538;18.972;2023-08-12T14:35:39;2.87;;;2.67;;
75400;SDS011;63974;47.538;18.972;2023-08-12T14:38:42;3.22;;;3.00;;
75400;SDS011;63974;47.538;18.972;2023-08-12T14:41:45;4.60;;;3.30;;
75400;SDS011;63974;47.538;18.972;2023-08-12T14:44:48;3.28;;;3.05;;
75400;SDS011;63974;47.538;18.972;2023-08-12T14:47:51;3.53;;;3.33;;
75400;SDS011;63974;47.538;18.972;2023-08-12T14:50:57;3.27;;;3.07;;
75400;SDS011;63974;47.538;18.972;2023-08-12T14:53:59;4.32;;;3.13;;
75400;SDS011;63974;47.538;18.972;2023-08-12T14:57:02;3.80;;;3.50;;
75400;SDS011;63974;47.538;18.972;2023-08-12T15:00:05;5.53;;;3.25;;
75400;SDS011;63974;47.538;18.972;2023-08-12T15:03:10;3.42;;;3.13;;
75400;SDS011;63974;47.538;18.972;2023-08-12T15:06:14;3.37;;;3.10;;
75400;SDS011;63974;47.538;18.972;2023-08-12T15:09:16;3.38;;;3.17;;
75400;SDS011;63974;47.538;18.972;2023-08-12T15:12:20;3.70;;;3.38;;
75400;SDS011;63974;47.538;18.972;2023-08-12T15:15:24;4.55;;;2.90;;
75400;SDS011;63974;47.538;18.972;2023-08-12T15:18:27;3.05;;;2.85;;
75400;SDS011;63974;47.538;18.972;2023-08-12T15:21:30;2.77;;;2.57;;
75400;SDS011;63974;47.538;18.972;2023-08-12T15:24:32;3.35;;;3.03;;
75400;SDS011;63974;47.538;18.972;2023-08-12T15:27:35;3.65;;;3.35;;
75400;SDS011;63974;47.538;18.972;2023-08-12T15:30:38;3.53;;;3.13;;
75400;SDS011;63974;47.538;18.972;2023-08-12T15:33:41;3.53;;;3.33;;
75400;SDS011;63974;47.538;18.972;2023-08-12T15:36:44;3.00;;;2.80;;
75400;SDS011;63974;47.538;18.972;2023-08-12T15:39:47;4.25;;;3.13;;
75400;SDS011;63974;47.538;18.972;2023-08-12T15:42:50;3.53;;;3.33;;
75400;SDS011;63974;47.538;18.972;2023-08-12T15:45:53;2.88;;;2.67;;
75400;SDS011;63974;47.538;18.972;2023-08-12T15:48:55;4.15;;;2.75;;
75400;SDS011;63974;47.538;18.972;2023-08-12T15:51:58;3.20;;;3.00;;
75400;SDS011;63974;47.538;18.972;2023-08-12T15:55:01;3.45;;;3.15;;
75400;SDS011;63974;47.538;18.972;2023-08-12T15:58:05;3.22;;;2.92;;
75400;SDS011;63974;47.538;18.972;2023-08-12T16:01:07;3.33;;;3.13;;
75400;SDS011;63974;47.538;18.972;2023-08-12T16:04:10;3.08;;;2.83;;
75400;SDS011;63974;47.538;18.972;2023-08-12T16:07:13;3.27;;;2.53;;
75400;SDS011;63974;47.538;18.972;2023-08-12T16:10:18;3.00;;;2.78;;
75400;SDS011;63974;47.538;18.972;2023-08-12T16:13:21;3.45;;;3.15;;
75400;SDS011;63974;47.538;18.972;2023-08-12T16:16:24;3.33;;;3.13;;
75400;SDS011;63974;47.538;18.972;2023-08-12T16:19:27;2.80;;;2.60;;
75400;SDS011;63974;47.538;18.972;2023-08-12T16:22:32;2.53;;;2.27;;
75400;SDS011;63974;47.538;18.972;2023-08-12T16:25:35;2.53;;;2.33;;
75400;SDS011;63974;47.538;18.972;2023-08-12T16:28:37;3.08;;;2.88;;
75400;SDS011;63974;47.538;18.972;2023-08-12T16:31:40;2.53;;;2.33;;
75400;SDS011;63974;47.538;18.972;2023-08-12T16:34:44;2.72;;;2.53;;
75400;SDS011;63974;47.538;18.972;2023-08-12T16:37:46;3.03;;;2.80;;
75400;SDS011;63974;47.538;18.972;2023-08-12T16:40:49;2.70;;;2.50;;
75400;SDS011;63974;47.538;18.972;2023-08-12T16:43:52;2.42;;;2.22;;
75400;SDS011;63974;47.538;18.972;2023-08-12T16:46:55;2.70;;;2.50;;
75400;SDS011;63974;47.538;18.972;2023-08-12T16:49:57;3.33;;;2.58;;
75400;SDS011;63974;47.538;18.972;2023-08-12T16:53:00;2.87;;;2.60;;
75400;SDS011;63974;47.538;18.972;2023-08-12T16:56:03;2.20;;;2.00;;
75400;SDS011;63974;47.538;18.972;2023-08-12T16:59:06;2.60;;;2.40;;
75400;SDS011;63974;47.538;18.972;2023-08-12T17:02:09;2.50;;;2.30;;
75400;SDS011;63974;47.538;18.972;2023-08-12T17:05:12;2.53;;;2.33;;
75400;SDS011;63974;47.538;18.972;2023-08-12T17:08:15;2.60;;;2.40;;
75400;SDS011;63974;47.538;18.972;2023-08-12T17:11:19;2.15;;;1.95;;
75400;SDS011;63974;47.538;18.972;2023-08-12T17:14:22;2.85;;;1.95;;
75400;SDS011;63974;47.538;18.972;2023-08-12T17:17:25;2.53;;;2.33;;
75400;SDS011;63974;47.538;18.972;2023-08-12T17:20:28;2.85;;;2.17;;
75400;SDS011;63974;47.538;18.972;2023-08-12T17:23:31;4.83;;;2.60;;
75400;SDS011;63974;47.538;18.972;2023-08-12T17:26:34;2.75;;;2.22;;
75400;SDS011;63974;47.538;18.972;2023-08-12T17:29:36;2.63;;;2.42;;
75400;SDS011;63974;47.538;18.972;2023-08-12T17:32:39;2.83;;;2.60;;
75400;SDS011;63974;47.538;18.972;2023-08-12T17:35:42;3.05;;;2.85;;
75400;SDS011;63974;47.538;18.972;2023-08-12T17:38:45;2.60;;;2.40;;
75400;SDS011;63974;47.538;18.972;2023-08-12T17:41:47;3.22;;;2.33;;
75400;SDS011;63974;47.538;18.972;2023-08-12T17:44:50;5.30;;;2.90;;
75400;SDS011;63974;47.538;18.972;2023-08-12T17:47:56;6.43;;;3.55;;
75400;SDS011;63974;47.538;18.972;2023-08-12T17:51:05;5.28;;;3.40;;
75400;SDS011;63974;47.538;18.972;2023-08-12T17:54:15;5.30;;;4.17;;
75400;SDS011;63974;47.538;18.972;2023-08-12T17:57:17;5.95;;;3.40;;
75400;SDS011;63974;47.538;18.972;2023-08-12T18:00:20;4.88;;;2.70;;
75400;SDS011;63974;47.538;18.972;2023-08-12T18:03:25;4.13;;;2.85;;
75400;SDS011;63974;47.538;18.972;2023-08-12T18:06:27;3.30;;;2.95;;
75400;SDS011;63974;47.538;18.972;2023-08-12T18:09:30;3.93;;;2.73;;